Terminal Aerodrome Forecast
Issued by NWS

Current Version | Previous Version | Text Only | Print | Product List | Glossary Off
Versions: 1 2 3 4 5 6 7 8 9 10 11 12 13 14 15 16

000
FTUS41 KPBZ 181647 AAA
TAFHLG
TAF AMD
KHLG 181647Z 1817/1912 06010KT P6SM VCSH OVC080
     FM182300 12011KT P6SM BKN035 WS020/12035KT
     FM190400 09010KT P6SM -RA OVC010 WS020/12035KT=

USA.gov is the U.S. government's official web portal to all federal, state and local government web resources and services.